Time;durP1;ratioP1;P1;durP2;ratioP2;P2;SDS_P1;SDS_P2;PMS_P1;PMS_P2;Temp;Humidity;BMP_temperature;BMP_pressure;BME280_temperature;BME280_humidity;BME280_pressure;Samples;Min_cycle;Max_cycle;Signal;HPM_P1;HPM_P2
2022/10/16 00:00:11;;;;;;;10.38;4.93;;;;;;;12.82;59.18;100400.38;3144284;28;20449;-70
2022/10/16 00:01:43;;;;;;;8.45;3.88;;;;;;;12.81;58.82;100400.44;3145669;28;20161;-69
2022/10/16 00:03:15;;;;;;;6.07;3.70;;;;;;;12.79;59.21;100404.91;3146111;28;20102;-70
2022/10/16 00:04:46;;;;;;;8.10;3.63;;;;;;;12.75;59.07;100401.59;3144213;28;20041;-69
2022/10/16 00:06:20;;;;;;;7.85;4.13;;;;;;;12.75;59.34;100406.81;3145583;28;20052;-68
2022/10/16 00:07:52;;;;;;;6.97;4.18;;;;;;;12.70;58.95;100412.25;3145340;28;20059;-69
2022/10/16 00:09:24;;;;;;;11.95;4.07;;;;;;;12.68;59.36;100411.44;3146091;28;20049;-69
2022/10/16 00:11:00;;;;;;;5.97;4.20;;;;;;;12.66;59.45;100413.31;3144123;28;20080;-69
2022/10/16 00:12:33;;;;;;;7.50;4.40;;;;;;;12.61;59.25;100410.03;3145095;28;20055;-69
2022/10/16 00:14:08;;;;;;;12.27;4.13;;;;;;;12.59;59.57;100409.25;3145672;28;20051;-68
2022/10/16 00:15:39;;;;;;;7.88;4.22;;;;;;;12.56;59.49;100409.38;3144443;28;20067;-69
2022/10/16 00:17:11;;;;;;;6.85;4.32;;;;;;;12.55;59.42;100414.69;3144848;28;20060;-69
2022/10/16 00:18:43;;;;;;;9.70;4.60;;;;;;;12.52;59.51;100407.81;3145587;28;20050;-69
2022/10/16 00:20:14;;;;;;;6.97;4.37;;;;;;;12.51;59.90;100406.09;3145730;28;20052;-68
2022/10/16 00:21:46;;;;;;;9.02;3.97;;;;;;;12.52;59.85;100411.28;3142948;28;20460;-68
2022/10/16 00:23:17;;;;;;;6.90;4.10;;;;;;;12.53;59.48;100415.56;3145108;28;20518;-69
2022/10/16 00:24:49;;;;;;;8.60;4.80;;;;;;;12.53;59.66;100415.56;3145439;28;20205;-68
2022/10/16 00:26:21;;;;;;;8.25;4.28;;;;;;;12.53;59.86;100415.56;3143682;28;20075;-70
2022/10/16 00:27:54;;;;;;;11.93;4.78;;;;;;;12.51;59.98;100404.38;3145157;28;20056;-68
2022/10/16 00:29:26;;;;;;;10.20;4.45;;;;;;;12.52;59.90;100410.44;3145680;28;20049;-69
2022/10/16 00:30:58;;;;;;;7.57;4.22;;;;;;;12.52;59.92;100408.66;3143238;28;20446;-69
2022/10/16 00:32:30;;;;;;;9.40;4.15;;;;;;;12.51;60.14;100411.34;3141053;28;20100;-69
2022/10/16 00:34:02;;;;;;;14.00;4.40;;;;;;;12.51;59.70;100408.72;3144956;28;20055;-70
2022/10/16 00:35:33;;;;;;;7.00;4.20;;;;;;;12.49;60.05;100408.81;3144665;28;20041;-69
2022/10/16 00:37:05;;;;;;;7.57;4.35;;;;;;;12.49;60.00;100408.81;3145276;28;20120;-71
2022/10/16 00:38:37;;;;;;;10.02;4.30;;;;;;;12.46;60.18;100408.94;3145253;28;20044;-71
2022/10/16 00:40:10;;;;;;;9.23;4.27;;;;;;;12.43;60.03;100413.44;3144739;28;20049;-71
2022/10/16 00:41:42;;;;;;;18.17;4.60;;;;;;;12.40;60.09;100416.19;3143879;28;20719;-71
2022/10/16 00:43:34;;;;;;;8.63;4.13;;;;;;;12.38;60.43;100418.84;3145530;28;20048;-71
2022/10/16 00:45:07;;;;;;;8.05;4.32;;;;;;;12.38;60.75;100415.41;3144577;28;20056;-71
2022/10/16 00:46:43;;;;;;;10.10;4.75;;;;;;;12.38;60.38;100418.84;3145551;28;20052;-71
2022/10/16 00:48:14;;;;;;;9.05;4.20;;;;;;;12.37;60.83;100418.94;3144600;28;20040;-71
2022/10/16 00:49:48;;;;;;;9.18;5.05;;;;;;;12.36;60.69;100422.44;3144618;28;20048;-72
2022/10/16 00:51:25;;;;;;;11.32;4.78;;;;;;;12.30;60.70;100418.31;3137728;28;20045;-72
2022/10/16 00:52:59;;;;;;;9.65;4.53;;;;;;;12.36;60.91;100418.06;3144827;28;20045;-71
2022/10/16 00:54:33;;;;;;;10.30;4.70;;;;;;;12.36;60.95;100427.66;3145382;28;20048;-71
2022/10/16 00:56:04;;;;;;;11.27;4.75;;;;;;;12.34;60.97;100430.38;3144476;28;20401;-71
2022/10/16 00:57:36;;;;;;;6.38;4.22;;;;;;;12.33;61.03;100431.25;3145240;28;20048;-70
2022/10/16 00:59:16;;;;;;;10.35;4.70;;;;;;;12.33;61.07;100428.63;3144030;28;20072;-69
2022/10/16 01:00:47;;;;;;;7.88;4.85;;;;;;;12.31;60.89;100433.09;3140767;28;20061;-72
2022/10/16 01:02:19;;;;;;;8.27;4.20;;;;;;;12.31;60.95;100440.09;3143325;28;20062;-72
2022/10/16 01:03:51;;;;;;;8.30;4.88;;;;;;;12.28;61.03;100441.91;3144646;28;20075;-71
2022/10/16 01:05:23;;;;;;;7.03;4.28;;;;;;;12.27;61.02;100439.34;3143695;28;20118;-72
2022/10/16 01:07:02;;;;;;;8.60;4.47;;;;;;;12.25;61.14;100452.50;3144405;28;20044;-71
2022/10/16 01:08:44;;;;;;;11.98;4.55;;;;;;;12.24;61.47;100450.75;3144334;28;20193;-72
2022/10/16 01:10:27;;;;;;;9.95;4.72;;;;;;;12.23;61.18;100445.63;3144538;28;20485;-68
2022/10/16 01:12:10;;;;;;;8.68;4.72;;;;;;;12.20;61.22;100464.03;3141680;28;20055;-68
2022/10/16 01:13:47;;;;;;;7.78;4.78;;;;;;;12.17;61.41;100454.56;3145329;28;20390;-68
2022/10/16 01:15:27;;;;;;;11.65;4.95;;;;;;;12.15;61.70;100461.59;3134599;28;20115;-67
2022/10/16 01:17:05;;;;;;;10.05;4.85;;;;;;;12.14;61.82;100469.50;3144012;28;20044;-68
2022/10/16 01:18:43;;;;;;;10.68;5.40;;;;;;;12.05;61.87;100458.53;3144369;28;20107;-69
2022/10/16 01:20:25;;;;;;;12.88;5.05;;;;;;;12.09;62.01;100459.25;3145227;28;20053;-70
2022/10/16 01:21:59;;;;;;;15.60;5.97;;;;;;;12.07;62.26;100463.69;3143936;28;20049;-70
2022/10/16 01:23:45;;;;;;;13.02;6.40;;;;;;;12.07;62.66;100466.31;3144610;28;20671;-68
2022/10/16 01:25:26;;;;;;;13.60;5.40;;;;;;;12.03;62.68;100470.78;3132909;28;20114;-70
2022/10/16 01:27:14;;;;;;;11.10;5.60;;;;;;;12.01;62.39;100461.34;3142103;28;20118;-70
2022/10/16 01:28:52;;;;;;;18.60;6.78;;;;;;;12.00;62.66;100463.06;3142072;28;20583;-70
2022/10/16 01:30:29;;;;;;;18.25;6.28;;;;;;;11.99;62.75;100465.75;3143329;28;20496;-70
2022/10/16 01:32:05;;;;;;;13.93;6.13;;;;;;;11.98;62.88;100469.25;3143264;28;20410;-70
2022/10/16 01:33:43;;;;;;;12.90;5.95;;;;;;;11.92;62.80;100465.16;3142890;28;20055;-71
2022/10/16 01:35:23;;;;;;;17.48;6.68;;;;;;;11.86;62.88;100459.31;3143248;28;20638;-70
2022/10/16 01:36:59;;;;;;;14.00;5.80;;;;;;;11.92;63.17;100474.72;3142531;28;20106;-70
2022/10/16 01:38:36;;;;;;;11.65;6.13;;;;;;;11.91;62.92;100470.44;3139605;28;20495;-71
2022/10/16 01:40:12;;;;;;;14.63;6.32;;;;;;;11.88;63.16;100474.00;3137999;28;20481;-71
2022/10/16 01:41:48;;;;;;;11.20;6.00;;;;;;;11.88;62.90;100479.22;3138029;28;20682;-69
2022/10/16 01:43:26;;;;;;;14.10;6.60;;;;;;;11.79;63.31;100461.28;3139203;28;20516;-69
2022/10/16 01:44:59;;;;;;;20.98;6.18;;;;;;;11.84;63.40;100482.84;3136500;28;20044;-70
2022/10/16 01:46:33;;;;;;;10.52;6.10;;;;;;;11.81;63.28;100483.81;3138705;28;20429;-69
2022/10/16 01:48:09;;;;;;;14.25;7.63;;;;;;;11.82;63.45;100484.66;3139493;28;20052;-69
2022/10/16 01:49:41;;;;;;;17.60;6.65;;;;;;;11.78;63.59;100477.88;3139670;28;20497;-69
2022/10/16 01:51:15;;;;;;;16.45;7.40;;;;;;;11.78;63.37;100483.94;3138740;28;20068;-69
2022/10/16 01:52:52;;;;;;;11.18;6.05;;;;;;;11.76;63.44;100485.75;3138973;28;20565;-71
2022/10/16 01:54:27;;;;;;;15.98;6.35;;;;;;;11.77;63.56;100491.81;3138910;28;20122;-71
2022/10/16 01:56:01;;;;;;;12.98;6.20;;;;;;;11.77;63.63;100494.41;3138828;28;20464;-71
2022/10/16 01:57:35;;;;;;;14.45;6.55;;;;;;;11.69;63.82;100489.53;3138181;28;20057;-71
2022/10/16 01:59:13;;;;;;;13.68;6.55;;;;;;;11.73;63.63;100490.25;3139664;28;20155;-71
2022/10/16 02:00:48;;;;;;;15.23;6.95;;;;;;;11.71;63.76;100494.66;3139530;28;20094;-71
2022/10/16 02:02:21;;;;;;;18.13;6.80;;;;;;;11.67;63.77;100490.47;3137076;28;20045;-71
2022/10/16 02:03:58;;;;;;;14.20;6.35;;;;;;;11.70;63.98;100492.97;3139612;28;20052;-71
2022/10/16 02:05:35;;;;;;;12.30;5.80;;;;;;;11.62;64.12;100477.59;3137736;28;20053;-71
2022/10/16 02:07:06;;;;;;;13.25;6.03;;;;;;;11.64;64.07;100491.44;3138431;28;20055;-71
2022/10/16 02:08:40;;;;;;;14.07;7.00;;;;;;;11.65;64.21;100493.13;3139550;28;20056;-71
2022/10/16 02:10:12;;;;;;;;;;;;;;;11.58;64.34;100486.47;3138983;28;20053;-72
2022/10/16 02:11:44;;;;;;;13.77;5.90;;;;;;;11.59;64.50;100490.75;3138962;28;19928;-72
2022/10/16 02:13:19;;;;;;;11.97;6.83;;;;;;;11.56;64.17;100483.91;3138912;28;20114;-72
2022/10/16 02:14:53;;;;;;;14.45;6.57;;;;;;;11.55;64.36;100487.44;3139460;28;20302;-72
2022/10/16 02:16:34;;;;;;;10.77;5.95;;;;;;;11.51;64.52;100491.06;3137790;28;20680;-68
2022/10/16 02:18:07;;;;;;;16.30;6.70;;;;;;;11.45;64.81;100496.53;3138769;28;20056;-70
2022/10/16 02:19:40;;;;;;;15.52;6.95;;;;;;;11.37;64.64;100485.53;3139398;28;20048;-70
2022/10/16 02:21:18;;;;;;;12.60;5.82;;;;;;;11.39;64.97;100488.94;3137146;28;20056;-70
2022/10/16 02:22:53;;;;;;;13.80;6.82;;;;;;;11.36;64.84;100500.31;3139401;28;20095;-71
2022/10/16 02:24:31;;;;;;;14.77;7.10;;;;;;;11.34;65.30;100494.31;3139225;28;20592;-71
2022/10/16 02:26:06;;;;;;;15.68;6.82;;;;;;;11.31;65.42;100497.03;3138531;28;20045;-71
2022/10/16 02:27:43;;;;;;;13.60;6.53;;;;;;;11.30;65.06;100497.94;3138940;28;20114;-70
2022/10/16 02:29:19;;;;;;;15.60;7.35;;;;;;;11.25;65.42;100493.81;3138400;28;20048;-70
2022/10/16 02:30:57;;;;;;;15.48;7.18;;;;;;;11.24;65.07;100492.09;3137557;28;20126;-70
2022/10/16 02:32:32;;;;;;;11.43;6.65;;;;;;;11.24;65.45;100494.69;3138553;28;20052;-70
2022/10/16 02:34:07;;;;;;;13.10;7.00;;;;;;;11.24;65.44;100495.56;3139221;28;20052;-70
2022/10/16 02:35:41;;;;;;;16.30;6.35;;;;;;;11.24;65.56;100492.09;3138525;28;20048;-73
2022/10/16 02:37:13;;;;;;;17.83;7.20;;;;;;;11.22;65.60;100494.75;3138876;28;20087;-72
2022/10/16 02:38:46;;;;;;;15.68;6.57;;;;;;;11.23;65.40;100500.81;3139343;28;20619;-72
2022/10/16 02:40:17;;;;;;;10.90;6.70;;;;;;;11.22;65.69;100505.19;3137603;28;20139;-74
2022/10/16 02:41:49;;;;;;;15.07;7.03;;;;;;;11.21;65.72;100506.13;3137324;28;20618;-73
2022/10/16 02:43:21;;;;;;;16.15;6.20;;;;;;;11.22;65.74;100512.16;3137622;28;20177;-71
2022/10/16 02:44:52;;;;;;;12.38;6.25;;;;;;;11.23;65.91;100508.66;3139901;28;20118;-70
2022/10/16 02:46:34;;;;;;;20.17;7.13;;;;;;;11.23;65.66;100508.66;3140680;28;20505;-70
2022/10/16 02:48:07;;;;;;;11.98;6.60;;;;;;;11.24;65.65;100511.22;3141790;28;20488;-71
2022/10/16 02:49:39;;;;;;;13.88;6.47;;;;;;;11.23;65.91;100508.66;3141693;28;20491;-72
2022/10/16 02:51:11;;;;;;;17.25;7.15;;;;;;;11.24;65.59;100513.81;3140183;28;20644;-71
2022/10/16 02:52:43;;;;;;;12.68;5.93;;;;;;;11.26;65.82;100513.75;3140922;28;20876;-71
2022/10/16 02:54:15;;;;;;;11.65;6.50;;;;;;;11.25;65.86;100512.91;3140897;28;20106;-71
2022/10/16 02:55:47;;;;;;;10.40;6.03;;;;;;;11.26;65.84;100511.97;3141273;28;20044;-71
2022/10/16 02:57:18;;;;;;;15.60;7.15;;;;;;;11.24;65.76;100511.22;3141785;28;20060;-72
2022/10/16 02:58:50;;;;;;;16.20;6.63;;;;;;;11.26;65.72;100519.81;3141651;28;20060;-73
2022/10/16 03:00:21;;;;;;;17.77;6.32;;;;;;;11.25;65.55;100519.88;3140217;28;20079;-72
2022/10/16 03:01:54;;;;;;;17.15;7.00;;;;;;;11.26;65.95;100519.81;3141141;28;20052;-72
2022/10/16 03:03:29;;;;;;;11.18;5.97;;;;;;;11.22;65.88;100520.84;3139959;28;20382;-72
2022/10/16 03:05:00;;;;;;;14.43;6.57;;;;;;;11.22;65.90;100517.38;3141033;28;20573;-72
2022/10/16 03:06:32;;;;;;;13.07;6.78;;;;;;;11.25;65.75;100531.16;3141073;28;20143;-71
2022/10/16 03:08:04;;;;;;;12.55;7.10;;;;;;;11.26;65.93;100532.00;3141042;28;20135;-71
2022/10/16 03:09:34;;;;;;;14.05;6.65;;;;;;;11.25;65.92;100527.69;3141364;28;20493;-71
2022/10/16 03:11:07;;;;;;;16.90;7.50;;;;;;;11.24;65.70;100523.38;3140278;28;20060;-75
2022/10/16 03:12:39;;;;;;;15.40;6.65;;;;;;;11.22;66.16;100527.81;3140949;28;20483;-75
2022/10/16 03:14:11;;;;;;;14.43;7.45;;;;;;;11.21;66.17;100524.34;3140684;28;20052;-72
2022/10/16 03:15:42;;;;;;;16.13;7.32;;;;;;;11.21;66.11;100524.34;3140122;28;20208;-71
2022/10/16 03:17:16;;;;;;;16.13;6.55;;;;;;;11.22;66.09;100525.19;3134024;28;20152;-72
2022/10/16 03:18:49;;;;;;;16.77;7.25;;;;;;;11.22;66.14;100536.47;3141209;28;20056;-73
2022/10/16 03:20:20;;;;;;;11.93;5.95;;;;;;;11.21;66.24;100533.91;3141309;28;20084;-73
2022/10/16 03:21:52;;;;;;;15.27;7.97;;;;;;;11.14;66.06;100530.69;3140486;28;20051;-73
2022/10/16 03:23:24;;;;;;;17.20;7.88;;;;;;;11.15;66.30;100537.59;3137020;28;20102;-73
2022/10/16 03:24:55;;;;;;;16.35;8.57;;;;;;;11.14;66.22;100538.50;3139636;28;20053;-71
2022/10/16 03:26:27;;;;;;;13.32;8.70;;;;;;;11.12;66.08;100545.50;3139902;28;20092;-72
2022/10/16 03:27:59;;;;;;;16.30;7.82;;;;;;;11.07;66.07;100540.47;3140733;28;20056;-72
2022/10/16 03:29:36;;;;;;;13.02;8.07;;;;;;;11.06;66.15;100538.78;3142643;28;20171;-72
2022/10/16 03:31:09;;;;;;;21.80;9.23;;;;;;;11.05;66.15;100542.28;3140039;28;20052;-72
2022/10/16 03:32:42;;;;;;;16.20;8.23;;;;;;;11.04;66.46;100547.56;3141123;28;20056;-72
2022/10/16 03:34:13;;;;;;;14.88;8.60;;;;;;;11.00;66.90;100549.41;3139984;28;20075;-73
2022/10/16 03:35:52;;;;;;;17.73;8.15;;;;;;;10.98;66.51;100546.03;3140614;28;20955;-72
2022/10/16 03:37:24;;;;;;;14.57;8.35;;;;;;;10.98;66.64;100543.41;3139811;28;20551;-72
2022/10/16 03:38:56;;;;;;;13.50;8.50;;;;;;;10.98;66.82;100542.56;3137380;28;20514;-72
2022/10/16 03:40:28;;;;;;;19.55;8.13;;;;;;;10.96;66.67;100544.38;3140072;28;20146;-72
2022/10/16 03:42:00;;;;;;;14.10;8.57;;;;;;;10.92;67.10;100538.41;3140910;28;20135;-71
2022/10/16 03:43:32;;;;;;;18.88;8.73;;;;;;;10.92;66.85;100551.44;3139700;28;20044;-71
2022/10/16 03:45:04;;;;;;;13.75;8.20;;;;;;;10.92;66.86;100548.84;3140254;28;20476;-72
2022/10/16 03:46:35;;;;;;;16.88;7.78;;;;;;;10.91;66.81;100549.72;3139120;28;20076;-72
2022/10/16 03:48:08;;;;;;;14.45;7.97;;;;;;;10.92;66.73;100554.06;3141144;28;20052;-74
2022/10/16 03:49:40;;;;;;;18.98;9.65;;;;;;;10.91;66.88;100542.78;3141106;28;20044;-74
2022/10/16 03:51:12;;;;;;;14.07;8.10;;;;;;;10.91;67.00;100555.81;3140131;28;20053;-73
2022/10/16 03:52:44;;;;;;;18.65;8.45;;;;;;;10.90;66.96;100554.09;3140199;28;20423;-72
2022/10/16 03:54:15;;;;;;;19.33;8.63;;;;;;;10.90;67.02;100558.47;3139922;28;20070;-73
2022/10/16 03:55:47;;;;;;;19.30;8.20;;;;;;;10.90;66.96;100553.25;3138390;28;20048;-73
2022/10/16 03:57:18;;;;;;;22.95;8.73;;;;;;;10.91;67.31;100558.41;3140374;28;20093;-73
2022/10/16 03:58:50;;;;;;;18.90;9.57;;;;;;;10.91;66.98;100562.75;3139447;28;20237;-73
2022/10/16 04:00:22;;;;;;;15.45;8.98;;;;;;;10.91;67.03;100563.63;3139336;28;20114;-73
2022/10/16 04:01:54;;;;;;;17.83;9.25;;;;;;;10.91;67.05;100562.75;3140241;28;20540;-71
2022/10/16 04:03:26;;;;;;;20.55;8.30;;;;;;;10.90;67.13;100561.91;3140715;28;20106;-71
2022/10/16 04:04:58;;;;;;;20.95;9.43;;;;;;;10.89;66.97;100560.22;3138593;28;20052;-72
2022/10/16 04:06:30;;;;;;;14.77;8.07;;;;;;;10.87;67.12;100562.00;3140835;28;20419;-71
2022/10/16 04:08:02;;;;;;;15.15;8.48;;;;;;;10.86;67.36;100569.91;3140265;28;20049;-69
2022/10/16 04:09:33;;;;;;;21.17;8.57;;;;;;;10.85;67.41;100558.59;3140309;28;20091;-71
2022/10/16 04:11:05;;;;;;;14.40;8.75;;;;;;;10.83;67.28;100559.59;3139666;28;20115;-69
2022/10/16 04:12:37;;;;;;;13.30;8.18;;;;;;;10.81;67.61;100553.56;3140021;28;20116;-70
2022/10/16 04:14:09;;;;;;;17.90;8.60;;;;;;;10.75;67.34;100546.81;3140102;28;20230;-70
2022/10/16 04:15:41;;;;;;;16.50;8.98;;;;;;;10.79;67.25;100551.00;3139439;28;20108;-69
2022/10/16 04:17:13;;;;;;;16.10;9.00;;;;;;;10.79;67.66;100560.56;3140912;28;20080;-71
2022/10/16 04:18:47;;;;;;;14.80;8.35;;;;;;;10.78;67.47;100562.34;3139462;28;20620;-70
2022/10/16 04:20:19;;;;;;;16.48;8.88;;;;;;;10.77;67.43;100549.38;3140545;28;20052;-71
2022/10/16 04:21:50;;;;;;;12.05;8.32;;;;;;;10.77;67.37;100562.41;3139464;28;20084;-70
2022/10/16 04:23:23;;;;;;;16.50;8.98;;;;;;;10.78;67.56;100561.50;3138998;28;20726;-70
2022/10/16 04:24:54;;;;;;;16.13;9.20;;;;;;;10.77;67.37;100565.84;3139964;28;20048;-68
2022/10/16 04:26:26;;;;;;;18.67;9.00;;;;;;;10.75;67.66;100558.97;3140016;28;20048;-69
2022/10/16 04:27:58;;;;;;;16.85;8.02;;;;;;;10.75;67.63;100558.97;3138884;28;20113;-70
2022/10/16 04:29:30;;;;;;;13.05;7.25;;;;;;;10.75;67.48;100564.19;3138737;28;20049;-72
2022/10/16 04:31:03;;;;;;;13.27;8.05;;;;;;;10.74;67.30;100567.69;3139580;28;20060;-67
2022/10/16 04:32:35;;;;;;;21.75;7.85;;;;;;;10.72;67.54;100572.97;3136828;28;20048;-70
2022/10/16 04:34:09;;;;;;;15.30;7.75;;;;;;;10.73;67.57;100568.59;3140531;28;20059;-70
2022/10/16 04:35:41;;;;;;;17.55;7.35;;;;;;;10.67;67.36;100565.28;3139338;28;20064;-68
2022/10/16 04:37:12;;;;;;;14.70;7.32;;;;;;;10.72;67.29;100577.31;3140670;28;20064;-69
2022/10/16 04:38:44;;;;;;;14.20;7.20;;;;;;;10.71;67.72;100571.28;3140224;28;20523;-68
2022/10/16 04:40:17;;;;;;;16.48;7.65;;;;;;;10.69;67.29;100567.84;3139284;28;20056;-70
2022/10/16 04:41:47;;;;;;;15.10;7.28;;;;;;;10.66;67.27;100570.56;3140064;28;20106;-68
2022/10/16 04:43:19;;;;;;;12.43;7.53;;;;;;;10.59;67.52;100556.91;3138198;28;20510;-69
2022/10/16 04:44:51;;;;;;;16.30;7.60;;;;;;;10.60;67.51;100569.00;3138754;28;20049;-67
2022/10/16 04:46:23;;;;;;;15.50;7.55;;;;;;;10.56;66.97;100569.16;3137248;28;20584;-65
2022/10/16 04:47:58;;;;;;;12.80;7.13;;;;;;;10.52;67.07;100565.78;3139003;28;20106;-69
2022/10/16 04:49:31;;;;;;;14.05;7.28;;;;;;;10.46;67.33;100579.03;3138603;28;20052;-69
2022/10/16 04:51:04;;;;;;;15.32;7.10;;;;;;;10.41;67.37;100576.59;3139297;28;20510;-69
2022/10/16 04:52:35;;;;;;;16.45;7.50;;;;;;;10.38;67.62;100575.81;3139377;28;20122;-68
2022/10/16 04:54:06;;;;;;;12.65;6.93;;;;;;;10.36;68.38;100572.41;3138743;28;20053;-67
2022/10/16 04:55:38;;;;;;;14.43;7.53;;;;;;;10.35;68.69;100576.78;3138056;28;20051;-63
2022/10/16 04:57:10;;;;;;;18.92;8.13;;;;;;;10.37;69.16;100584.53;3139313;28;20288;-66
2022/10/16 04:58:41;;;;;;;14.57;7.50;;;;;;;10.37;69.60;100587.13;3140295;28;20629;-66
2022/10/16 05:00:14;;;;;;;14.77;8.73;;;;;;;10.38;69.53;100584.50;3139162;28;20096;-64
2022/10/16 05:01:46;;;;;;;16.85;7.65;;;;;;;10.36;69.57;100590.66;3140160;28;20048;-67
2022/10/16 05:03:18;;;;;;;17.80;7.97;;;;;;;10.34;69.25;100597.63;3140133;28;20114;-64
2022/10/16 05:04:51;;;;;;;18.17;8.70;;;;;;;10.30;69.17;100598.66;3139995;28;20082;-66
2022/10/16 05:06:23;;;;;;;20.08;11.05;;;;;;;10.28;69.31;100593.47;3139059;28;20052;-67
2022/10/16 05:07:55;;;;;;;14.93;10.35;;;;;;;10.24;69.41;100603.09;3139065;28;20115;-67
2022/10/16 05:09:27;;;;;;;18.88;10.93;;;;;;;10.20;69.12;100601.50;3139025;28;20118;-67
2022/10/16 05:10:59;;;;;;;24.08;15.35;;;;;;;10.18;69.10;100603.28;3138788;28;20063;-67
2022/10/16 05:12:32;;;;;;;14.63;7.70;;;;;;;10.13;69.31;100599.13;3140565;28;20438;-66
2022/10/16 05:14:04;;;;;;;16.10;8.05;;;;;;;10.13;69.65;100597.38;3140601;28;20057;-69
2022/10/16 05:15:36;;;;;;;14.98;7.43;;;;;;;10.11;69.50;100603.50;3138423;28;20514;-69
2022/10/16 05:17:07;;;;;;;17.45;8.07;;;;;;;10.10;69.82;100602.66;3138572;28;20075;-72
2022/10/16 05:18:39;;;;;;;23.50;10.50;;;;;;;10.08;69.80;100612.25;3140109;28;20506;-64
2022/10/16 05:20:13;;;;;;;12.88;8.40;;;;;;;10.05;69.80;100611.50;3140030;28;20122;-65
2022/10/16 05:21:45;;;;;;;13.25;7.70;;;;;;;10.02;70.23;100607.25;3140060;28;20052;-65
2022/10/16 05:23:17;;;;;;;15.60;8.15;;;;;;;10.00;70.01;100611.66;3139478;28;20063;-69
2022/10/16 05:24:49;;;;;;;21.10;8.82;;;;;;;9.96;70.34;100612.63;3139879;28;20052;-67
2022/10/16 05:26:21;;;;;;;16.48;9.00;;;;;;;9.94;70.45;100610.09;3138484;28;20044;-71
2022/10/16 05:27:53;;;;;;;16.73;8.77;;;;;;;9.94;70.74;100614.44;3139871;28;20056;-68
2022/10/16 05:29:25;;;;;;;19.42;8.80;;;;;;;9.93;70.96;100618.78;3138010;28;20520;-66
2022/10/16 05:30:56;;;;;;;16.23;8.80;;;;;;;9.91;71.04;100612.78;3137766;28;20147;-65
2022/10/16 05:32:29;;;;;;;15.30;9.35;;;;;;;9.94;71.04;100619.66;3139040;28;20524;-67
2022/10/16 05:34:11;;;;;;;17.77;8.90;;;;;;;9.94;71.04;100627.47;3139760;28;20048;-66
2022/10/16 05:35:45;;;;;;;25.73;9.40;;;;;;;9.93;71.38;100626.59;3142692;28;20515;-67
2022/10/16 05:37:16;;;;;;;21.92;8.35;;;;;;;9.95;71.30;100632.59;3144675;28;20166;-67
2022/10/16 05:38:50;;;;;;;16.52;8.30;;;;;;;9.87;71.78;100634.56;3139693;28;20057;-65
2022/10/16 05:40:22;;;;;;;18.15;9.50;;;;;;;9.88;71.67;100631.09;3145000;28;20048;-68
2022/10/16 05:41:54;;;;;;;18.38;9.52;;;;;;;9.93;71.84;100633.53;3142918;28;20053;-66
2022/10/16 05:43:28;;;;;;;13.13;8.50;;;;;;;9.95;71.79;100637.81;3144768;28;20137;-68
2022/10/16 05:45:00;;;;;;;20.45;10.32;;;;;;;9.94;71.67;100643.91;3144843;28;20059;-68
2022/10/16 05:46:31;;;;;;;17.15;8.52;;;;;;;9.87;71.46;100636.31;3143006;28;20124;-67
2022/10/16 05:48:06;;;;;;;19.52;8.38;;;;;;;9.91;71.52;100644.00;3144865;28;20052;-72
2022/10/16 05:49:38;;;;;;;22.35;9.20;;;;;;;9.93;71.15;100643.94;3143112;28;20048;-68
2022/10/16 05:51:13;;;;;;;34.63;18.30;;;;;;;9.99;71.39;100642.00;3143986;28;20101;-69
2022/10/16 05:52:45;;;;;;;61.90;29.60;;;;;;;10.05;71.16;100650.53;3145248;28;20044;-65
2022/10/16 05:54:18;;;;;;;16.92;9.15;;;;;;;10.07;70.77;100649.59;3144828;28;20059;-66
2022/10/16 05:55:53;;;;;;;13.85;8.23;;;;;;;10.07;70.62;100652.22;3144986;28;20045;-65
2022/10/16 05:57:28;;;;;;;13.98;8.60;;;;;;;10.07;70.71;100653.97;3133028;28;20506;-68
2022/10/16 05:59:00;;;;;;;20.83;10.68;;;;;;;10.11;70.19;100656.41;3143893;28;20048;-67
2022/10/16 06:00:31;;;;;;;17.58;9.77;;;;;;;10.14;70.29;100658.09;3142931;28;20059;-63
2022/10/16 06:02:03;;;;;;;15.18;8.38;;;;;;;10.19;70.48;100666.63;3144023;28;20521;-74
2022/10/16 06:03:35;;;;;;;15.30;7.28;;;;;;;10.21;70.23;100657.00;3144841;28;20044;-70
2022/10/16 06:05:08;;;;;;;15.43;6.75;;;;;;;10.25;69.93;100659.47;3143099;28;20095;-70
2022/10/16 06:06:42;;;;;;;18.52;7.38;;;;;;;10.34;70.14;100666.19;3143307;28;20090;-69
2022/10/16 06:08:13;;;;;;;12.77;6.78;;;;;;;10.43;69.96;100665.03;3144619;28;20044;-70
2022/10/16 06:09:48;;;;;;;15.10;6.78;;;;;;;10.53;69.91;100674.31;3142774;28;20056;-69
2022/10/16 06:11:23;;;;;;;13.07;6.50;;;;;;;10.56;69.59;100670.72;3142786;28;20079;-70
2022/10/16 06:12:55;;;;;;;13.68;5.65;;;;;;;10.61;69.11;100671.44;3143325;28;20067;-67
2022/10/16 06:14:27;;;;;;;11.25;5.55;;;;;;;10.73;69.25;100672.81;3141362;28;20063;-67
2022/10/16 06:16:00;;;;;;;10.63;5.35;;;;;;;10.81;68.79;100671.66;3144157;28;20064;-66
2022/10/16 06:17:32;;;;;;;11.00;5.30;;;;;;;10.95;68.63;100660.78;3144518;28;20052;-68
2022/10/16 06:19:06;;;;;;;12.60;5.63;;;;;;;11.11;68.62;100664.56;3143969;28;20113;-72
2022/10/16 06:20:37;;;;;;;;;;;;;;;11.22;68.12;100669.44;3144694;28;20509;-69
2022/10/16 06:22:10;;;;;;;9.07;5.15;;;;;;;11.37;68.05;100676.75;3144397;28;20325;-69
2022/10/16 06:23:57;;;;;;;9.57;5.95;;;;;;;11.49;67.38;100670.25;3144466;28;20106;-69
2022/10/16 06:25:32;;;;;;;8.30;5.05;;;;;;;11.64;67.25;100666.25;3140147;28;20048;-68
2022/10/16 06:27:05;;;;;;;14.00;5.93;;;;;;;11.74;66.78;100664.16;3144025;28;20535;-69
2022/10/16 06:28:37;;;;;;;10.45;5.22;;;;;;;11.91;66.78;100671.41;3144096;28;20072;-69
2022/10/16 06:30:09;;;;;;;8.27;4.78;;;;;;;12.09;66.48;100669.88;3140605;28;20191;-69
2022/10/16 06:31:42;;;;;;;11.10;5.45;;;;;;;12.29;66.47;100670.81;3143854;28;20587;-70
2022/10/16 06:33:14;;;;;;;14.75;5.90;;;;;;;12.55;66.30;100678.56;3143130;28;20434;-67
2022/10/16 06:34:46;;;;;;;11.40;5.32;;;;;;;12.79;65.98;100674.13;3141816;28;20045;-68
2022/10/16 06:36:18;;;;;;;9.75;4.60;;;;;;;13.11;65.37;100678.03;3143256;28;20116;-67
2022/10/16 06:37:53;;;;;;;13.52;5.05;;;;;;;13.51;64.95;100678.97;3141884;28;20106;-67
2022/10/16 06:39:25;;;;;;;12.30;5.18;;;;;;;13.85;64.28;100687.06;3143711;28;20045;-64
2022/10/16 06:40:57;;;;;;;8.40;4.93;;;;;;;14.23;63.16;100689.72;3144268;28;20102;-63
2022/10/16 06:42:29;;;;;;;10.70;4.43;;;;;;;14.57;61.94;100688.16;3141728;28;20049;-64
2022/10/16 06:44:00;;;;;;;17.08;7.30;;;;;;;14.93;60.94;100696.00;3143878;28;20142;-64
2022/10/16 06:45:32;;;;;;;10.98;4.88;;;;;;;15.34;59.95;100689.63;3143177;28;20556;-63
2022/10/16 06:47:04;;;;;;;7.85;4.30;;;;;;;15.73;58.44;100691.16;3144230;28;20105;-64
2022/10/16 06:48:36;;;;;;;10.60;4.78;;;;;;;16.10;57.05;100692.69;3144352;28;20117;-64
2022/10/16 06:50:08;;;;;;;9.82;4.32;;;;;;;16.53;56.06;100690.31;3144159;28;20106;-64
2022/10/16 06:51:41;;;;;;;8.32;4.75;;;;;;;16.88;54.09;100696.25;3144287;28;20053;-64
2022/10/16 06:53:14;;;;;;;7.85;4.82;;;;;;;17.23;53.25;100691.59;3144725;28;20506;-67
2022/10/16 06:54:46;;;;;;;11.18;4.47;;;;;;;17.46;51.65;100694.66;3143427;28;20488;-65
2022/10/16 06:56:20;;;;;;;8.70;4.68;;;;;;;17.58;50.44;100701.81;3144121;28;20120;-67
2022/10/16 06:57:52;;;;;;;8.98;4.57;;;;;;;17.80;49.99;100700.56;3144452;28;20048;-64
2022/10/16 06:59:24;;;;;;;12.02;6.80;;;;;;;17.84;49.86;100699.44;3141283;28;20139;-65
2022/10/16 07:00:58;;;;;;;13.38;7.90;;;;;;;17.74;49.56;100701.72;3140481;28;20045;-66
2022/10/16 07:02:30;;;;;;;19.20;11.05;;;;;;;17.64;49.85;100695.34;3143791;28;20044;-65
2022/10/16 07:04:04;;;;;;;8.57;5.90;;;;;;;17.49;49.72;100708.50;3142736;28;20106;-65
2022/10/16 07:05:38;;;;;;;23.67;6.15;;;;;;;17.61;49.22;100708.69;3142807;28;20045;-65
2022/10/16 07:07:17;;;;;;;11.95;5.18;;;;;;;17.54;49.19;100705.59;3141593;28;20071;-65
2022/10/16 07:08:51;;;;;;;12.45;7.15;;;;;;;17.48;49.30;100704.16;3143614;28;20051;-67
2022/10/16 07:10:24;;;;;;;6.93;4.57;;;;;;;17.55;49.13;100702.00;3136220;28;20045;-68